createdAt,value
2018-04-17T00:00:19.251Z,13.60
2018-04-17T00:02:45.530Z,13.64
2018-04-17T00:05:11.775Z,13.71
2018-04-17T00:07:38.015Z,13.73
2018-04-17T00:10:04.323Z,13.63
2018-04-17T00:12:30.587Z,13.73
2018-04-17T00:14:56.830Z,13.78
2018-04-17T00:17:23.098Z,13.70
2018-04-17T00:19:49.335Z,13.61
2018-04-17T00:22:15.570Z,13.57
2018-04-17T00:24:41.836Z,13.57
2018-04-17T00:27:08.096Z,13.61
2018-04-17T00:29:34.342Z,13.66
2018-04-17T00:32:00.634Z,13.70
2018-04-17T00:34:26.873Z,13.69
2018-04-17T00:36:53.123Z,13.69
2018-04-17T00:39:19.402Z,13.64
2018-04-17T00:41:45.667Z,13.62
2018-04-17T00:44:11.911Z,13.60
2018-04-17T00:46:38.171Z,13.60
2018-04-17T00:49:04.450Z,13.58
2018-04-17T00:51:30.691Z,13.53
2018-04-17T00:53:59.927Z,13.54
2018-04-17T00:56:26.168Z,13.51
2018-04-17T00:58:52.434Z,13.51
2018-04-17T01:01:18.766Z,13.44
2018-04-17T01:03:45.016Z,13.43
2018-04-17T01:06:11.267Z,13.43
2018-04-17T01:08:37.537Z,13.38
2018-04-17T01:11:03.790Z,13.33
2018-04-17T01:13:30.074Z,13.39
2018-04-17T01:15:56.384Z,13.39
2018-04-17T01:18:22.636Z,13.40
2018-04-17T01:20:48.908Z,13.37
2018-04-17T01:23:15.188Z,13.27
2018-04-17T01:25:41.440Z,13.18
2018-04-17T01:28:07.683Z,13.13
2018-04-17T01:30:33.983Z,13.16
2018-04-17T01:33:00.227Z,13.18
2018-04-17T01:35:26.517Z,13.16
2018-04-17T01:37:52.791Z,13.25
2018-04-17T01:40:19.047Z,13.20
2018-04-17T01:42:45.296Z,13.17
2018-04-17T01:45:11.599Z,13.19
2018-04-17T01:47:37.888Z,13.23
2018-04-17T01:50:04.139Z,13.27
2018-04-17T01:52:30.420Z,13.23
2018-04-17T01:54:56.695Z,13.12
2018-04-17T01:57:22.940Z,13.10
2018-04-17T01:59:49.203Z,13.14
2018-04-17T02:02:15.480Z,13.21
2018-04-17T02:04:41.751Z,13.30
2018-04-17T02:07:08.042Z,13.29
2018-04-17T02:09:34.282Z,13.12
2018-04-17T02:12:00.543Z,13.07
2018-04-17T02:14:26.802Z,13.01
2018-04-17T02:16:53.051Z,12.95
2018-04-17T02:19:19.323Z,12.96
2018-04-17T02:21:45.564Z,12.98
2018-04-17T02:24:11.799Z,13.00
2018-04-17T02:26:38.083Z,13.00
2018-04-17T02:29:04.327Z,13.10
2018-04-17T02:31:30.603Z,13.13
2018-04-17T02:33:56.860Z,13.06
2018-04-17T02:36:23.107Z,12.97
2018-04-17T02:38:49.371Z,13.00
2018-04-17T02:41:15.643Z,13.01
2018-04-17T02:43:41.924Z,13.02
2018-04-17T02:46:08.219Z,13.06
2018-04-17T02:48:34.464Z,13.13
2018-04-17T02:51:00.738Z,13.15
2018-04-17T02:53:27.007Z,13.15
2018-04-17T02:55:53.283Z,13.06
2018-04-17T02:58:19.537Z,12.99
2018-04-17T03:00:45.804Z,12.89
2018-04-17T03:03:12.066Z,12.72
2018-04-17T03:05:38.342Z,12.75
2018-04-17T03:08:04.642Z,12.73
2018-04-17T03:10:30.890Z,12.72
2018-04-17T03:12:57.160Z,12.76
2018-04-17T03:15:23.427Z,12.80
2018-04-17T03:17:49.706Z,12.68
2018-04-17T03:20:16.031Z,12.47
2018-04-17T03:22:42.284Z,12.47
2018-04-17T03:25:08.531Z,12.56
2018-04-17T03:27:34.807Z,12.63
2018-04-17T03:30:01.062Z,12.66
2018-04-17T03:32:27.352Z,12.69
2018-04-17T03:34:53.599Z,12.74
2018-04-17T03:37:19.834Z,12.76
2018-04-17T03:39:46.119Z,12.80
2018-04-17T03:42:12.383Z,12.86
2018-04-17T03:44:38.683Z,12.90
2018-04-17T03:47:04.922Z,12.90
2018-04-17T03:49:31.190Z,12.97
2018-04-17T03:51:57.467Z,13.00
2018-04-17T03:54:23.731Z,13.04
2018-04-17T03:56:50.008Z,13.07
2018-04-17T03:59:16.272Z,13.08
2018-04-17T04:01:42.530Z,13.12
2018-04-17T04:04:08.784Z,13.15
2018-04-17T04:06:35.044Z,13.21
2018-04-17T04:09:01.323Z,13.28
2018-04-17T04:11:27.568Z,13.28
2018-04-17T04:13:53.806Z,13.30
2018-04-17T04:16:32.231Z,13.31
2018-04-17T04:19:10.767Z,13.37
2018-04-17T04:21:49.468Z,13.41
2018-04-17T04:24:28.075Z,13.42
2018-04-17T04:26:54.383Z,13.48
2018-04-17T04:29:20.618Z,13.53
2018-04-17T04:31:46.899Z,13.59
2018-04-17T04:34:13.199Z,13.57
2018-04-17T04:36:39.433Z,13.51
2018-04-17T04:39:05.727Z,13.50
2018-04-17T04:41:31.967Z,13.45
2018-04-17T04:43:58.238Z,13.33
2018-04-17T04:46:24.480Z,13.29
2018-04-17T04:48:50.747Z,13.48
2018-04-17T04:51:17.025Z,13.63
2018-04-17T04:53:43.257Z,13.74
2018-04-17T04:56:09.538Z,13.83
2018-04-17T04:58:35.798Z,13.84
2018-04-17T05:01:02.029Z,13.88
2018-04-17T05:03:28.287Z,13.89
2018-04-17T05:05:54.574Z,13.73
2018-04-17T05:08:20.838Z,13.71
2018-04-17T05:10:47.096Z,13.66
2018-04-17T05:13:13.338Z,13.63
2018-04-17T05:15:39.604Z,13.73
2018-04-17T05:18:05.831Z,13.77
2018-04-17T05:20:32.121Z,13.73
2018-04-17T05:22:58.359Z,13.59
2018-04-17T05:25:24.599Z,13.60
2018-04-17T05:27:50.907Z,13.70
2018-04-17T05:30:17.147Z,13.67
2018-04-17T05:32:43.391Z,13.66
2018-04-17T05:35:09.659Z,13.70
2018-04-17T05:37:35.903Z,13.74
2018-04-17T05:40:02.180Z,13.96
2018-04-17T05:42:28.495Z,13.97
2018-04-17T05:44:54.764Z,13.98
2018-04-17T05:47:21.067Z,13.99
2018-04-17T05:49:47.295Z,14.08
2018-04-17T05:52:13.531Z,14.20
2018-04-17T05:54:39.799Z,14.19
2018-04-17T05:57:06.051Z,14.20
2018-04-17T05:59:32.319Z,14.25
2018-04-17T06:01:58.542Z,14.21
2018-04-17T06:04:24.811Z,14.19
2018-04-17T06:06:51.079Z,14.33
2018-04-17T06:09:17.325Z,14.39
2018-04-17T06:11:43.587Z,14.47
2018-04-17T06:14:09.847Z,14.50
2018-04-17T06:16:36.088Z,14.57
2018-04-17T06:19:02.380Z,14.64
2018-04-17T06:21:28.603Z,14.68
2018-04-17T06:23:54.878Z,14.70
2018-04-17T06:26:21.134Z,14.75
2018-04-17T06:28:47.362Z,14.82
2018-04-17T06:31:13.651Z,14.88
2018-04-17T06:33:39.920Z,14.99
2018-04-17T06:36:06.206Z,15.08
2018-04-17T06:38:32.447Z,15.21
2018-04-17T06:40:58.702Z,15.38
2018-04-17T06:43:24.979Z,15.46
2018-04-17T06:45:51.246Z,15.65
2018-04-17T06:48:17.515Z,15.69
2018-04-17T06:50:43.767Z,15.73
2018-04-17T06:53:10.002Z,16.00
2018-04-17T06:55:36.275Z,16.17
2018-04-17T06:58:02.592Z,16.10
2018-04-17T07:00:28.892Z,15.98
2018-04-17T07:02:55.118Z,15.79
2018-04-17T07:05:21.428Z,15.81
2018-04-17T07:07:47.663Z,15.74
2018-04-17T07:10:13.903Z,15.63
2018-04-17T07:12:40.199Z,15.64
2018-04-17T07:15:06.450Z,15.64
2018-04-17T07:17:32.705Z,15.61
2018-04-17T07:19:58.976Z,15.48
2018-04-17T07:22:25.210Z,15.11
2018-04-17T07:24:51.486Z,15.01
2018-04-17T07:27:17.747Z,15.07
2018-04-17T07:29:43.990Z,15.05
2018-04-17T07:32:10.260Z,15.05
2018-04-17T07:34:36.656Z,15.14
2018-04-17T07:37:02.827Z,15.07
2018-04-17T07:39:29.091Z,14.94
2018-04-17T07:41:55.367Z,14.77
2018-04-17T07:44:21.630Z,14.93
2018-04-17T07:47:00.182Z,15.01
2018-04-17T07:49:26.448Z,15.16
2018-04-17T07:51:52.710Z,15.05
2018-04-17T07:54:18.984Z,15.03
2018-04-17T07:56:45.214Z,15.12
2018-04-17T07:59:11.463Z,15.21
2018-04-17T08:01:37.723Z,15.33
2018-04-17T08:04:03.973Z,15.49
2018-04-17T08:06:30.227Z,15.46
2018-04-17T08:08:56.471Z,15.55
2018-04-17T08:11:22.707Z,15.79
2018-04-17T08:13:48.979Z,15.76
2018-04-17T08:16:15.215Z,15.78
2018-04-17T08:18:41.482Z,15.65
2018-04-17T08:21:07.718Z,15.69
2018-04-17T08:23:33.958Z,15.76
2018-04-17T08:26:00.215Z,15.79
2018-04-17T08:28:26.459Z,15.78
2018-04-17T08:30:52.722Z,15.72
2018-04-17T08:33:18.970Z,15.73
2018-04-17T08:35:45.204Z,15.85
2018-04-17T08:38:12.418Z,16.00
2018-04-17T08:40:38.688Z,16.17
2018-04-17T08:43:04.998Z,16.36
2018-04-17T08:45:31.258Z,16.41
2018-04-17T08:47:57.507Z,16.30
2018-04-17T08:50:23.785Z,16.30
2018-04-17T08:52:50.015Z,16.30
2018-04-17T08:55:16.279Z,16.32
2018-04-17T08:57:42.511Z,16.39
2018-04-17T09:00:08.815Z,16.52
2018-04-17T09:02:35.082Z,16.73
2018-04-17T09:05:01.347Z,16.96
2018-04-17T09:07:27.619Z,17.12
2018-04-17T09:09:53.871Z,17.24
2018-04-17T09:12:20.160Z,17.56
2018-04-17T09:14:46.423Z,17.79
2018-04-17T09:17:12.707Z,18.26
2018-04-17T09:19:38.933Z,18.88
2018-04-17T09:22:05.211Z,18.82
2018-04-17T09:24:31.454Z,18.70
2018-04-17T09:26:57.700Z,18.45
2018-04-17T09:29:23.995Z,18.25
2018-04-17T09:31:50.239Z,18.04
2018-04-17T09:34:16.489Z,18.05
2018-04-17T09:36:42.795Z,17.91
2018-04-17T09:39:09.039Z,18.06
2018-04-17T09:41:35.366Z,18.44
2018-04-17T09:44:01.623Z,18.79
2018-04-17T09:46:27.875Z,20.07
2018-04-17T09:48:54.132Z,20.28
2018-04-17T09:51:20.378Z,20.10
2018-04-17T09:53:46.659Z,20.12
2018-04-17T09:56:12.950Z,20.20
2018-04-17T09:58:39.195Z,20.53
2018-04-17T10:01:11.700Z,20.57
2018-04-17T10:03:37.982Z,20.42
2018-04-17T10:06:04.238Z,20.26
2018-04-17T10:08:30.515Z,20.23
2018-04-17T10:10:56.759Z,21.89
2018-04-17T10:13:23.038Z,23.53
2018-04-17T10:15:49.315Z,24.06
2018-04-17T10:18:15.616Z,24.06
2018-04-17T10:20:41.865Z,24.58
2018-04-17T10:23:08.116Z,24.71
2018-04-17T10:25:34.378Z,25.53
2018-04-17T10:28:00.619Z,25.24
2018-04-17T10:30:26.899Z,24.90
2018-04-17T10:32:53.154Z,24.67
2018-04-17T10:35:19.439Z,25.55
2018-04-17T10:37:45.712Z,26.40
2018-04-17T10:40:11.991Z,26.96
2018-04-17T10:42:38.267Z,27.41
2018-04-17T10:45:04.548Z,27.73
2018-04-17T10:47:30.811Z,27.89
2018-04-17T10:49:57.103Z,27.64
2018-04-17T10:52:23.365Z,27.62
2018-04-17T10:54:49.651Z,28.23
2018-04-17T10:57:15.891Z,29.00
2018-04-17T10:59:42.163Z,28.78
2018-04-17T11:02:08.435Z,28.10
2018-04-17T11:04:34.671Z,27.03
2018-04-17T11:07:00.967Z,26.41
2018-04-17T11:09:27.207Z,25.73
2018-04-17T11:11:53.452Z,25.34
2018-04-17T11:14:19.727Z,25.19
2018-04-17T11:16:45.974Z,25.21
2018-04-17T11:19:12.296Z,25.90
2018-04-17T11:21:38.543Z,26.58
2018-04-17T11:24:04.792Z,27.17
2018-04-17T11:26:31.059Z,27.94
2018-04-17T11:28:57.299Z,28.95
2018-04-17T11:31:23.607Z,30.08
2018-04-17T11:33:49.871Z,30.78
2018-04-17T11:36:16.144Z,31.14
2018-04-17T11:38:42.414Z,31.46
2018-04-17T11:41:08.663Z,31.79
2018-04-17T11:43:34.947Z,31.57
2018-04-17T11:46:01.224Z,31.55
2018-04-17T11:48:27.476Z,31.83
2018-04-17T11:50:53.756Z,32.33
2018-04-17T11:53:19.999Z,32.69
2018-04-17T11:55:46.279Z,32.94
2018-04-17T11:58:12.555Z,32.51
2018-04-17T12:00:38.826Z,33.25
2018-04-17T12:03:05.131Z,33.53
2018-04-17T12:05:31.422Z,33.73
2018-04-17T12:07:57.705Z,34.07
2018-04-17T12:10:23.989Z,34.56
2018-04-17T12:12:50.290Z,34.69
2018-04-17T12:15:16.559Z,34.86
2018-04-17T12:17:42.818Z,35.00
2018-04-17T12:20:09.101Z,34.68
2018-04-17T12:22:35.354Z,33.15
2018-04-17T12:25:01.619Z,31.63
2018-04-17T12:27:27.888Z,31.89
2018-04-17T12:29:54.155Z,32.31
2018-04-17T12:32:20.460Z,33.09
2018-04-17T12:34:46.699Z,33.68
2018-04-17T12:37:12.950Z,33.76
2018-04-17T12:39:39.223Z,33.88
2018-04-17T12:42:05.466Z,34.27
2018-04-17T12:44:31.747Z,35.10
2018-04-17T12:46:58.025Z,34.79
2018-04-17T12:49:24.314Z,35.09
2018-04-17T12:51:50.607Z,35.64
2018-04-17T12:54:16.847Z,35.80
2018-04-17T12:56:43.133Z,35.69
2018-04-17T12:59:09.383Z,34.51
2018-04-17T13:01:35.623Z,34.86
2018-04-17T13:04:01.909Z,34.93
2018-04-17T13:06:28.167Z,34.54
2018-04-17T13:08:54.447Z,34.65
2018-04-17T13:11:20.679Z,35.37
2018-04-17T13:13:46.943Z,34.16
2018-04-17T13:16:13.213Z,33.64
2018-04-17T13:18:39.464Z,34.69
2018-04-17T13:21:05.726Z,35.19
2018-04-17T13:23:31.984Z,35.28
2018-04-17T13:25:58.242Z,35.63
2018-04-17T13:28:24.550Z,34.37
2018-04-17T13:30:50.810Z,33.52
2018-04-17T13:33:17.084Z,34.21
2018-04-17T13:35:43.332Z,34.98
2018-04-17T13:38:09.580Z,35.35
2018-04-17T13:40:35.894Z,35.86
2018-04-17T13:43:02.188Z,36.17
2018-04-17T13:45:28.445Z,36.27
2018-04-17T13:47:54.706Z,36.65
2018-04-17T13:50:20.967Z,36.61
2018-04-17T13:52:47.223Z,36.67
2018-04-17T13:55:13.485Z,36.78
2018-04-17T13:57:39.715Z,36.43
2018-04-17T14:00:05.991Z,36.05
2018-04-17T14:02:32.235Z,35.69
2018-04-17T14:04:58.496Z,35.78
2018-04-17T14:07:24.765Z,35.62
2018-04-17T14:09:51.026Z,35.14
2018-04-17T14:12:17.310Z,35.39
2018-04-17T14:14:43.559Z,35.78
2018-04-17T14:17:09.805Z,36.11
2018-04-17T14:19:36.104Z,36.29
2018-04-17T14:22:02.351Z,36.47
2018-04-17T14:24:28.631Z,36.29
2018-04-17T14:26:54.919Z,36.06
2018-04-17T14:29:21.174Z,35.87
2018-04-17T14:31:47.439Z,36.24
2018-04-17T14:34:13.704Z,36.18
2018-04-17T14:36:39.992Z,36.15
2018-04-17T14:39:06.246Z,35.46
2018-04-17T14:41:32.486Z,34.94
2018-04-17T14:43:58.754Z,35.10
2018-04-17T14:46:25.031Z,35.24
2018-04-17T14:48:51.299Z,35.29
2018-04-17T14:51:17.530Z,35.50
2018-04-17T14:53:43.766Z,35.41
2018-04-17T14:56:10.031Z,34.95
2018-04-17T14:58:36.275Z,34.71
2018-04-17T15:01:02.547Z,34.47
2018-04-17T15:03:28.798Z,34.32
2018-04-17T15:05:55.088Z,34.46
2018-04-17T15:08:21.399Z,34.61
2018-04-17T15:10:47.647Z,34.57
2018-04-17T15:13:13.919Z,34.53
2018-04-17T15:15:40.171Z,34.37
2018-04-17T15:18:06.407Z,33.98
2018-04-17T15:20:32.691Z,33.46
2018-04-17T15:22:58.961Z,33.11
2018-04-17T15:25:25.259Z,32.94
2018-04-17T15:27:51.506Z,32.59
2018-04-17T15:30:17.756Z,32.59
2018-04-17T15:32:44.075Z,32.38
2018-04-17T15:35:10.371Z,32.13
2018-04-17T15:37:36.663Z,31.62
2018-04-17T15:40:02.963Z,31.20
2018-04-17T15:42:30.040Z,31.03
2018-04-17T15:44:56.339Z,30.62
2018-04-17T15:47:22.593Z,30.32
2018-04-17T15:49:48.867Z,29.70
2018-04-17T15:52:15.103Z,28.93
2018-04-17T15:54:41.343Z,28.10
2018-04-17T15:57:07.601Z,27.36
2018-04-17T15:59:33.899Z,26.91
2018-04-17T16:02:00.166Z,26.55
2018-04-17T16:04:26.411Z,26.04
2018-04-17T16:06:52.697Z,25.64
2018-04-17T16:09:18.988Z,25.04
2018-04-17T16:11:45.223Z,24.51
2018-04-17T16:14:12.081Z,24.03
2018-04-17T16:16:38.371Z,23.72
2018-04-17T16:19:04.627Z,23.41
2018-04-17T16:21:30.966Z,23.23
2018-04-17T16:23:57.205Z,22.99
2018-04-17T16:26:23.500Z,22.88
2018-04-17T16:28:49.751Z,22.76
2018-04-17T16:31:16.000Z,22.64
2018-04-17T16:33:42.275Z,22.51
2018-04-17T16:36:08.552Z,22.44
2018-04-17T16:38:34.827Z,22.40
2018-04-17T16:41:01.120Z,22.25
2018-04-17T16:43:27.351Z,22.06
2018-04-17T16:45:53.619Z,21.91
2018-04-17T16:48:19.875Z,21.81
2018-04-17T16:50:46.150Z,21.72
2018-04-17T16:53:12.393Z,21.62
2018-04-17T16:55:38.658Z,21.52
2018-04-17T16:58:04.919Z,21.45
2018-04-17T17:00:31.171Z,21.35
2018-04-17T17:02:57.445Z,21.29
2018-04-17T17:05:23.726Z,21.22
2018-04-17T17:07:49.940Z,21.16
2018-04-17T17:10:16.227Z,21.05
2018-04-17T17:12:42.460Z,20.96
2018-04-17T17:15:08.751Z,20.89
2018-04-17T17:17:34.989Z,20.81
2018-04-17T17:20:01.267Z,20.71
2018-04-17T17:22:27.519Z,20.66
2018-04-17T17:24:53.759Z,20.55
2018-04-17T17:27:20.051Z,20.45
2018-04-17T17:29:46.307Z,20.37
2018-04-17T17:32:12.547Z,20.29
2018-04-17T17:34:38.810Z,20.15
2018-04-17T17:37:05.060Z,20.08
2018-04-17T17:39:31.291Z,19.99
2018-04-17T17:41:57.547Z,19.92
2018-04-17T17:44:23.782Z,19.81
2018-04-17T17:46:50.060Z,19.66
2018-04-17T17:49:16.354Z,19.58
2018-04-17T17:51:42.639Z,19.50
2018-04-17T17:54:08.879Z,19.41
2018-04-17T17:56:35.184Z,19.35
2018-04-17T17:59:01.460Z,19.24
2018-04-17T18:01:27.804Z,19.14
2018-04-17T18:03:54.071Z,19.09
2018-04-17T18:06:20.312Z,18.99
2018-04-17T18:08:46.584Z,18.90
2018-04-17T18:11:12.855Z,18.81
2018-04-17T18:13:39.124Z,18.71
2018-04-17T18:16:05.360Z,18.63
2018-04-17T18:18:31.630Z,18.54
2018-04-17T18:20:57.897Z,18.45
2018-04-17T18:23:24.137Z,18.36
2018-04-17T18:25:50.418Z,18.25
2018-04-17T18:28:16.656Z,18.17
2018-04-17T18:30:42.911Z,18.12
2018-04-17T18:33:09.194Z,18.05
2018-04-17T18:35:35.448Z,17.89
2018-04-17T18:38:01.752Z,17.70
2018-04-17T18:40:28.001Z,17.64
2018-04-17T18:42:54.231Z,17.53
2018-04-17T18:45:20.511Z,17.48
2018-04-17T18:47:46.761Z,17.45
2018-04-17T18:50:13.051Z,17.40
2018-04-17T18:52:39.314Z,17.32
2018-04-17T18:55:05.551Z,17.23
2018-04-17T18:57:31.825Z,17.16
2018-04-17T18:59:58.059Z,17.12
2018-04-17T19:02:24.329Z,17.06
2018-04-17T19:04:50.624Z,16.97
2018-04-17T19:07:16.900Z,16.96
2018-04-17T19:09:43.155Z,16.87
2018-04-17T19:12:09.397Z,16.82
2018-04-17T19:14:35.691Z,16.75
2018-04-17T19:17:01.954Z,16.70
2018-04-17T19:19:28.199Z,16.62
2018-04-17T19:21:54.459Z,16.60
2018-04-17T19:24:20.703Z,16.54
2018-04-17T19:26:46.966Z,16.46
2018-04-17T19:29:13.215Z,16.41
2018-04-17T19:31:39.455Z,16.35
2018-04-17T19:34:05.751Z,16.30
2018-04-17T19:36:31.980Z,16.26
2018-04-17T19:38:58.256Z,16.24
2018-04-17T19:41:24.511Z,16.18
2018-04-17T19:43:50.756Z,16.16
2018-04-17T19:46:17.013Z,16.12
2018-04-17T19:48:43.247Z,16.11
2018-04-17T19:51:09.520Z,16.09
2018-04-17T19:53:36.945Z,16.06
2018-04-17T19:56:03.227Z,16.03
2018-04-17T19:58:29.495Z,15.97
2018-04-17T20:00:55.735Z,15.89
2018-04-17T20:03:21.999Z,15.86
2018-04-17T20:05:48.235Z,15.84
2018-04-17T20:08:14.495Z,15.78
2018-04-17T20:10:40.770Z,15.72
2018-04-17T20:13:07.007Z,15.68
2018-04-17T20:15:33.278Z,15.68
2018-04-17T20:17:59.516Z,15.63
2018-04-17T20:20:25.759Z,15.59
2018-04-17T20:22:52.040Z,15.54
2018-04-17T20:25:18.279Z,15.48
2018-04-17T20:27:44.534Z,15.47
2018-04-17T20:30:10.779Z,15.42
2018-04-17T20:32:37.006Z,15.37
2018-04-17T20:35:03.284Z,15.34
2018-04-17T20:37:29.523Z,15.28
2018-04-17T20:39:55.831Z,15.24
2018-04-17T20:42:22.297Z,15.25
2018-04-17T20:44:48.558Z,15.23
2018-04-17T20:47:14.835Z,15.21
2018-04-17T20:49:41.063Z,15.20
2018-04-17T20:52:07.355Z,15.14
2018-04-17T20:54:33.618Z,15.06
2018-04-17T20:56:59.898Z,15.05
2018-04-17T20:59:26.155Z,15.02
2018-04-17T21:01:52.399Z,15.05
2018-04-17T21:04:18.663Z,15.01
2018-04-17T21:06:44.895Z,14.96
2018-04-17T21:09:11.150Z,14.93
2018-04-17T21:11:37.439Z,14.90
2018-04-17T21:14:03.702Z,14.86
2018-04-17T21:16:29.992Z,14.83
2018-04-17T21:18:56.258Z,14.80
2018-04-17T21:21:22.524Z,14.76
2018-04-17T21:23:48.786Z,14.70
2018-04-17T21:26:15.027Z,14.67
2018-04-17T21:28:41.263Z,14.61
2018-04-17T21:31:07.532Z,14.62
2018-04-17T21:33:33.767Z,14.60
2018-04-17T21:36:00.075Z,14.61
2018-04-17T21:38:26.315Z,14.54
2018-04-17T21:40:52.551Z,14.50
2018-04-17T21:43:19.655Z,14.49
2018-04-17T21:45:45.920Z,14.49
2018-04-17T21:48:12.155Z,14.49
2018-04-17T21:50:38.421Z,14.45
2018-04-17T21:53:04.655Z,14.43
2018-04-17T21:55:30.886Z,14.42
2018-04-17T21:57:57.926Z,14.37
2018-04-17T22:00:24.172Z,14.35
2018-04-17T22:02:50.450Z,14.30
2018-04-17T22:05:16.683Z,14.32
2018-04-17T22:07:42.927Z,14.28
2018-04-17T22:10:09.205Z,14.34
2018-04-17T22:12:35.426Z,14.31
2018-04-17T22:15:01.690Z,14.29
2018-04-17T22:17:27.915Z,14.34
2018-04-17T22:19:54.191Z,14.42
2018-04-17T22:22:20.488Z,14.47
2018-04-17T22:24:46.775Z,14.40
2018-04-17T22:27:13.055Z,14.39
2018-04-17T22:29:39.299Z,14.38
2018-04-17T22:32:05.535Z,14.33
2018-04-17T22:34:31.789Z,14.28
2018-04-17T22:36:58.058Z,14.24
2018-04-17T22:39:24.362Z,14.20
2018-04-17T22:41:50.631Z,14.18
2018-04-17T22:44:16.899Z,14.19
2018-04-17T22:46:43.199Z,14.12
2018-04-17T22:49:09.459Z,14.10
2018-04-17T22:51:35.762Z,14.03
2018-04-17T22:54:02.036Z,13.98
2018-04-17T22:56:28.323Z,13.94
2018-04-17T22:58:54.643Z,13.88
2018-04-17T23:01:20.903Z,13.88
2018-04-17T23:03:47.156Z,13.83
2018-04-17T23:06:13.403Z,13.78
2018-04-17T23:08:39.656Z,13.74
2018-04-17T23:11:05.922Z,13.72
2018-04-17T23:13:32.162Z,13.68
2018-04-17T23:15:58.454Z,13.65
2018-04-17T23:18:24.707Z,13.64
2018-04-17T23:20:50.942Z,13.61
2018-04-17T23:23:17.213Z,13.57
2018-04-17T23:25:43.454Z,13.55
2018-04-17T23:28:09.719Z,13.54
2018-04-17T23:30:35.965Z,13.55
2018-04-17T23:33:02.227Z,13.54
2018-04-17T23:35:28.487Z,13.51
2018-04-17T23:37:54.731Z,13.50
2018-04-17T23:40:21.038Z,13.47
2018-04-17T23:42:47.283Z,13.42
2018-04-17T23:45:13.542Z,13.38
2018-04-17T23:47:39.808Z,13.39
2018-04-17T23:50:06.056Z,13.37
2018-04-17T23:52:32.331Z,13.40
2018-04-17T23:54:58.575Z,13.39
2018-04-17T23:57:24.815Z,13.36
2018-04-17T23:59:51.084Z,13.32
